Edina, Minnesota
Current Conditions -  °F | °C
As of 2:53 AM on Wednesday 28 Jan 2015 (Local Time) from KMSP Reporting Station
Overcast Overcast  
Wind Chill: 20°   Ceiling: 1000
Heat Index: 30°   Visibility: 10mi
Dew Point: 25°   Wind: 13mph
Humidity: 82%   Direction: 140°SE
Pressure: 30.08"   Gusts: NA
Location:  44.91°N, 93.35°W
Report Text: KMSP 280853Z 14011KT 10SM OVC010 M01/M04 A3008 RMK AO2 SLP196 T10111039 56017
Loading
Personal Weather Stations






























Interactive Weather Map New forecast layout! Learn more

10-Day Weather Forecast

Advertisements
Track Severe Weather on mobile